createdAt,value
2022-10-20T00:01:42.658Z,10.26
2022-10-20T00:05:09.063Z,10.29
2022-10-20T00:08:35.546Z,10.23
2022-10-20T00:11:57.154Z,10.06
2022-10-20T00:15:23.552Z,9.95
2022-10-20T00:18:47.965Z,10.08
2022-10-20T00:22:09.448Z,10.04
2022-10-20T00:25:34.582Z,9.91
2022-10-20T00:28:56.903Z,9.83
2022-10-20T00:32:25.955Z,9.75
2022-10-20T00:35:52.230Z,9.75
2022-10-20T00:39:16.438Z,9.47
2022-10-20T00:42:44.728Z,9.35
2022-10-20T00:46:06.286Z,9.35
2022-10-20T00:49:28.323Z,9.39
2022-10-20T00:52:51.562Z,9.37
2022-10-20T00:56:13.207Z,9.37
2022-10-20T00:59:37.424Z,9.26
2022-10-20T01:03:04.207Z,9.09
2022-10-20T01:06:25.863Z,9.26
2022-10-20T01:09:47.610Z,9.27
2022-10-20T01:13:44.073Z,9.19
2022-10-20T01:17:40.042Z,9.15
2022-10-20T01:21:07.580Z,9.06
2022-10-20T01:24:53.762Z,9.06
2022-10-20T01:28:26.903Z,8.97
2022-10-20T01:32:07.167Z,9.09
2022-10-20T01:35:31.684Z,8.98
2022-10-20T01:39:06.917Z,8.82
2022-10-20T01:42:29.963Z,8.78
2022-10-20T01:45:53.524Z,8.91
2022-10-20T01:49:15.771Z,8.91
2022-10-20T01:52:37.475Z,8.87
2022-10-20T01:56:01.043Z,8.77
2022-10-20T02:00:03.857Z,8.77
2022-10-20T02:03:46.591Z,8.67
2022-10-20T02:07:18.855Z,8.72
2022-10-20T02:10:57.619Z,8.81
2022-10-20T02:14:21.509Z,8.81
2022-10-20T02:17:49.838Z,8.59
2022-10-20T02:21:14.142Z,8.61
2022-10-20T02:24:38.164Z,8.57
2022-10-20T02:28:04.473Z,8.54
2022-10-20T02:31:31.230Z,8.53
2022-10-20T02:34:52.778Z,8.51
2022-10-20T02:38:16.662Z,8.46
2022-10-20T02:41:38.410Z,8.37
2022-10-20T02:44:59.967Z,8.37
2022-10-20T02:48:26.300Z,8.39
2022-10-20T02:51:47.850Z,8.25
2022-10-20T02:55:09.517Z,8.26
2022-10-20T02:58:31.067Z,8.16
2022-10-20T03:01:52.792Z,8.09
2022-10-20T03:05:14.800Z,8.02
2022-10-20T03:08:36.353Z,8.06
2022-10-20T03:11:59.991Z,7.88
2022-10-20T03:15:21.507Z,7.72
2022-10-20T03:18:45.306Z,7.68
2022-10-20T03:22:09.397Z,7.54
2022-10-20T03:25:31.688Z,7.63
2022-10-20T03:28:53.259Z,7.65
2022-10-20T03:32:14.808Z,7.43
2022-10-20T03:35:36.596Z,7.53
2022-10-20T03:39:03.268Z,7.54
2022-10-20T03:42:24.761Z,7.61
2022-10-20T03:45:46.305Z,7.68
2022-10-20T03:49:07.812Z,7.50
2022-10-20T03:52:31.603Z,7.43
2022-10-20T03:55:53.110Z,7.43
2022-10-20T03:59:14.630Z,7.38
2022-10-20T04:02:39.516Z,7.37
2022-10-20T04:06:01.214Z,7.37
2022-10-20T04:09:27.235Z,7.42
2022-10-20T04:12:52.147Z,7.44
2022-10-20T04:16:16.006Z,7.42
2022-10-20T04:19:40.177Z,7.36
2022-10-20T04:23:06.750Z,7.40
2022-10-20T04:26:33.055Z,7.50
2022-10-20T04:29:54.624Z,7.50
2022-10-20T04:33:18.410Z,7.50
2022-10-20T04:36:42.639Z,7.51
2022-10-20T04:40:04.710Z,7.54
2022-10-20T04:43:28.960Z,7.44
2022-10-20T04:46:50.514Z,7.51
2022-10-20T04:50:12.117Z,7.53
2022-10-20T04:53:36.828Z,7.40
2022-10-20T04:56:58.507Z,7.47
2022-10-20T05:00:20.085Z,7.37
2022-10-20T05:03:44.654Z,7.24
2022-10-20T05:07:06.208Z,7.28
2022-10-20T05:10:33.193Z,7.33
2022-10-20T05:13:58.079Z,7.34
2022-10-20T05:17:19.575Z,7.28
2022-10-20T05:21:07.438Z,7.24
2022-10-20T05:24:29.941Z,7.30
2022-10-20T05:27:51.816Z,7.26
2022-10-20T05:31:17.686Z,7.36
2022-10-20T05:34:41.602Z,7.43
2022-10-20T05:38:03.115Z,7.48
2022-10-20T05:41:31.206Z,7.53
2022-10-20T05:44:56.209Z,7.55
2022-10-20T05:48:18.906Z,7.58
2022-10-20T05:51:40.407Z,7.61
2022-10-20T05:55:02.673Z,7.67
2022-10-20T05:58:24.210Z,7.74
2022-10-20T06:01:48.879Z,7.86
2022-10-20T06:05:13.199Z,7.92
2022-10-20T06:08:37.009Z,7.99
2022-10-20T06:11:59.557Z,8.88
2022-10-20T06:15:26.104Z,9.36
2022-10-20T06:18:50.316Z,9.83
2022-10-20T06:22:11.886Z,10.12
2022-10-20T06:25:33.389Z,10.38
2022-10-20T06:29:01.159Z,10.46
2022-10-20T06:32:27.996Z,10.16
2022-10-20T06:35:49.499Z,10.02
2022-10-20T06:39:17.458Z,9.88
2022-10-20T06:42:39.246Z,9.87
2022-10-20T06:46:03.861Z,9.93
2022-10-20T06:49:27.652Z,9.98
2022-10-20T06:52:49.175Z,9.97
2022-10-20T06:56:15.233Z,9.95
2022-10-20T06:59:38.693Z,10.01
2022-10-20T07:03:00.201Z,10.14
2022-10-20T07:06:28.294Z,10.16
2022-10-20T07:09:49.869Z,10.53
2022-10-20T07:13:11.381Z,10.91
2022-10-20T07:16:35.445Z,11.82
2022-10-20T07:19:56.979Z,12.01
2022-10-20T07:23:18.494Z,12.32
2022-10-20T07:26:41.104Z,12.56
2022-10-20T07:30:02.645Z,12.78
2022-10-20T07:33:24.470Z,13.11
2022-10-20T07:36:49.356Z,13.24
2022-10-20T07:40:14.308Z,13.06
2022-10-20T07:43:36.968Z,13.62
2022-10-20T07:47:03.451Z,14.68
2022-10-20T07:50:27.186Z,14.68
2022-10-20T07:53:49.326Z,14.24
2022-10-20T07:57:13.089Z,14.99
2022-10-20T08:00:36.758Z,15.57
2022-10-20T08:04:00.651Z,16.57
2022-10-20T08:07:24.456Z,16.56
2022-10-20T08:10:46.031Z,16.60
2022-10-20T08:14:07.700Z,16.77
2022-10-20T08:17:29.285Z,15.97
2022-10-20T08:20:53.433Z,15.44
2022-10-20T08:24:14.967Z,15.13
2022-10-20T08:27:38.954Z,13.17
2022-10-20T08:31:07.677Z,13.44
2022-10-20T08:34:29.492Z,13.69
2022-10-20T08:37:53.809Z,13.16
2022-10-20T08:41:34.539Z,14.02
2022-10-20T08:45:00.368Z,15.19
2022-10-20T08:48:26.048Z,15.91
2022-10-20T08:51:48.016Z,16.38
2022-10-20T08:58:49.449Z,15.78
2022-10-20T09:02:17.069Z,16.63
2022-10-20T09:05:43.054Z,16.40
2022-10-20T09:09:04.933Z,15.88
2022-10-20T09:12:31.162Z,16.26
2022-10-20T09:16:06.316Z,15.97
2022-10-20T09:19:31.228Z,15.30
2022-10-20T09:22:52.804Z,16.39
2022-10-20T09:26:30.890Z,16.87
2022-10-20T09:30:14.236Z,17.22
2022-10-20T09:33:35.891Z,17.17
2022-10-20T09:37:09.256Z,16.57
2022-10-20T09:40:34.089Z,16.42
2022-10-20T09:44:00.174Z,16.91
2022-10-20T09:47:24.085Z,16.18
2022-10-20T09:50:51.585Z,15.85
2022-10-20T09:54:20.059Z,17.34
2022-10-20T09:57:51.304Z,17.31
2022-10-20T10:01:18.738Z,18.37
2022-10-20T10:04:42.982Z,19.10
2022-10-20T10:08:04.614Z,19.58
2022-10-20T10:11:35.577Z,20.13
2022-10-20T10:15:23.761Z,19.78
2022-10-20T10:18:54.317Z,20.65
2022-10-20T10:22:15.907Z,20.31
2022-10-20T10:25:42.285Z,19.47
2022-10-20T10:29:04.864Z,18.86
2022-10-20T10:32:29.350Z,19.61
2022-10-20T10:35:50.971Z,20.72
2022-10-20T10:39:16.507Z,19.76
2022-10-20T10:43:06.620Z,19.43
2022-10-20T10:46:36.959Z,19.27
2022-10-20T10:50:28.271Z,18.35
2022-10-20T10:54:12.283Z,18.10
2022-10-20T10:57:55.291Z,18.63
2022-10-20T11:01:38.094Z,20.30
2022-10-20T11:05:02.859Z,21.19
2022-10-20T11:08:49.900Z,21.19
2022-10-20T11:12:26.890Z,20.91
2022-10-20T11:16:03.421Z,18.03
2022-10-20T11:19:46.428Z,17.35
2022-10-20T11:23:20.072Z,16.81
2022-10-20T11:26:52.212Z,17.56
2022-10-20T11:30:22.110Z,18.55
2022-10-20T11:33:50.990Z,18.11
2022-10-20T11:37:30.490Z,16.80
2022-10-20T11:41:03.251Z,18.41
2022-10-20T11:44:34.506Z,19.86
2022-10-20T11:48:11.073Z,18.97
2022-10-20T11:51:32.531Z,19.47
2022-10-20T11:55:15.113Z,17.50
2022-10-20T11:59:02.580Z,16.66
2022-10-20T12:02:41.629Z,18.28
2022-10-20T12:06:26.391Z,20.24
2022-10-20T12:10:09.155Z,21.49
2022-10-20T12:13:45.537Z,21.10
2022-10-20T12:17:28.511Z,18.45
2022-10-20T12:21:01.954Z,18.82
2022-10-20T12:24:39.409Z,18.80
2022-10-20T12:28:22.607Z,18.11
2022-10-20T12:32:21.484Z,18.83
2022-10-20T12:36:01.838Z,19.54
2022-10-20T12:39:24.884Z,18.61
2022-10-20T12:42:48.534Z,18.44
2022-10-20T12:49:52.411Z,17.17
2022-10-20T12:53:34.192Z,17.10
2022-10-20T12:57:05.300Z,17.31
2022-10-20T13:00:46.883Z,16.90
2022-10-20T13:04:47.316Z,17.08
2022-10-20T13:08:23.336Z,17.43
2022-10-20T13:11:55.813Z,17.69
2022-10-20T13:15:28.177Z,17.29
2022-10-20T13:18:51.992Z,16.60
2022-10-20T13:22:46.518Z,16.76
2022-10-20T13:26:26.433Z,16.79
2022-10-20T13:29:48.386Z,16.83
2022-10-20T13:33:38.507Z,17.01
2022-10-20T13:37:10.112Z,16.55
2022-10-20T13:40:37.692Z,16.73
2022-10-20T13:44:16.626Z,17.01
2022-10-20T13:47:49.361Z,16.61
2022-10-20T13:51:20.711Z,16.36
2022-10-20T13:54:46.967Z,16.67
2022-10-20T13:58:23.356Z,17.03
2022-10-20T14:01:55.505Z,16.80
2022-10-20T14:05:26.568Z,16.39
2022-10-20T14:08:48.206Z,15.98
2022-10-20T14:12:20.606Z,15.98
2022-10-20T14:15:55.707Z,16.01
2022-10-20T14:19:23.226Z,15.84
2022-10-20T14:22:47.753Z,15.98
2022-10-20T14:26:18.345Z,15.98
2022-10-20T14:29:42.586Z,16.09
2022-10-20T14:33:05.428Z,16.00
2022-10-20T14:36:29.006Z,15.98
2022-10-20T14:39:51.141Z,15.70
2022-10-20T14:43:17.717Z,15.98
2022-10-20T14:46:45.780Z,15.94
2022-10-20T14:50:07.688Z,15.73
2022-10-20T14:53:33.943Z,15.90
2022-10-20T14:57:01.364Z,15.94
2022-10-20T15:00:48.618Z,15.75
2022-10-20T15:04:24.718Z,15.71
2022-10-20T15:07:48.852Z,15.71
2022-10-20T15:11:28.098Z,15.67
2022-10-20T15:14:52.014Z,15.29
2022-10-20T15:18:19.289Z,15.19
2022-10-20T15:21:40.936Z,15.32
2022-10-20T15:25:04.715Z,15.36
2022-10-20T15:28:32.150Z,15.36
2022-10-20T15:31:59.633Z,15.12
2022-10-20T15:35:24.240Z,14.99
2022-10-20T15:38:46.329Z,15.03
2022-10-20T15:42:12.074Z,15.08
2022-10-20T15:45:37.704Z,15.12
2022-10-20T15:48:59.241Z,15.06
2022-10-20T15:52:21.451Z,15.02
2022-10-20T15:55:45.303Z,14.96
2022-10-20T15:59:06.879Z,14.92
2022-10-20T16:02:28.408Z,14.89
2022-10-20T16:05:55.304Z,14.81
2022-10-20T16:09:16.939Z,15.51
2022-10-20T16:12:40.796Z,15.42
2022-10-20T16:16:02.348Z,15.67
2022-10-20T16:19:23.965Z,15.37
2022-10-20T16:22:45.573Z,15.16
2022-10-20T16:26:09.371Z,15.25
2022-10-20T16:29:30.916Z,15.39
2022-10-20T16:32:52.539Z,15.35
2022-10-20T16:36:16.451Z,15.36
2022-10-20T16:39:38.119Z,14.96
2022-10-20T16:43:04.886Z,14.64
2022-10-20T16:46:28.793Z,14.33
2022-10-20T16:49:52.688Z,14.01
2022-10-20T16:53:14.642Z,13.69
2022-10-20T16:56:36.204Z,13.44
2022-10-20T16:59:59.516Z,13.23
2022-10-20T17:03:23.396Z,13.10
2022-10-20T17:06:44.905Z,12.96
2022-10-20T17:10:07.178Z,12.93
2022-10-20T17:13:29.613Z,12.76
2022-10-20T17:16:51.195Z,12.63
2022-10-20T17:20:12.752Z,12.46
2022-10-20T17:23:38.819Z,12.42
2022-10-20T17:27:03.450Z,12.30
2022-10-20T17:30:25.002Z,12.05
2022-10-20T17:33:49.472Z,11.87
2022-10-20T17:37:14.008Z,11.86
2022-10-20T17:40:37.596Z,11.79
2022-10-20T17:44:00.761Z,11.66
2022-10-20T17:47:22.258Z,11.67
2022-10-20T17:50:44.100Z,11.56
2022-10-20T17:54:05.974Z,11.49
2022-10-20T17:57:30.103Z,11.34
2022-10-20T18:01:08.540Z,11.31
2022-10-20T18:04:34.212Z,11.27
2022-10-20T18:07:55.722Z,11.19
2022-10-20T18:11:19.929Z,11.15
2022-10-20T18:14:41.545Z,11.08
2022-10-20T18:18:05.796Z,10.71
2022-10-20T18:21:31.740Z,10.55
2022-10-20T18:24:55.874Z,10.28
2022-10-20T18:28:20.366Z,9.85
2022-10-20T18:31:44.131Z,9.99
2022-10-20T18:35:06.217Z,9.97
2022-10-20T18:38:27.747Z,9.95
2022-10-20T18:41:54.078Z,9.78
2022-10-20T18:45:20.331Z,9.88
2022-10-20T18:48:46.871Z,9.77
2022-10-20T18:52:10.721Z,9.77
2022-10-20T18:55:34.546Z,9.75
2022-10-20T18:59:05.692Z,9.54
2022-10-20T19:02:28.450Z,9.48
2022-10-20T19:05:49.977Z,9.46
2022-10-20T19:09:15.099Z,9.44
2022-10-20T19:12:36.988Z,9.53
2022-10-20T19:15:59.870Z,9.44
2022-10-20T19:19:22.807Z,9.48
2022-10-20T19:22:44.321Z,9.42
2022-10-20T19:26:10.407Z,9.54
2022-10-20T19:29:32.041Z,9.19
2022-10-20T19:32:54.898Z,9.23
2022-10-20T19:36:16.914Z,9.27
2022-10-20T19:39:40.974Z,9.15
2022-10-20T19:43:02.508Z,9.11
2022-10-20T19:46:24.088Z,9.11
2022-10-20T19:49:48.107Z,9.25
2022-10-20T19:53:09.651Z,9.05
2022-10-20T19:56:36.019Z,8.81
2022-10-20T19:59:57.563Z,8.71
2022-10-20T20:03:21.294Z,8.65
2022-10-20T20:06:42.810Z,8.67
2022-10-20T20:10:04.762Z,9.01
2022-10-20T20:13:26.489Z,9.54
2022-10-20T20:16:48.174Z,10.16
2022-10-20T20:20:09.767Z,10.48
2022-10-20T20:23:47.543Z,10.71
2022-10-20T20:27:18.046Z,10.76
2022-10-20T20:30:42.084Z,10.55
2022-10-20T20:34:03.653Z,10.23
2022-10-20T20:37:25.369Z,9.97
2022-10-20T20:40:49.755Z,9.71
2022-10-20T20:44:11.360Z,9.50
2022-10-20T20:47:35.533Z,9.44
2022-10-20T20:50:58.514Z,9.22
2022-10-20T20:54:20.087Z,9.04
2022-10-20T20:57:45.026Z,9.04
2022-10-20T21:01:13.692Z,8.89
2022-10-20T21:04:35.307Z,8.82
2022-10-20T21:07:58.903Z,8.77
2022-10-20T21:11:24.824Z,8.65
2022-10-20T21:14:48.028Z,8.63
2022-10-20T21:18:09.524Z,8.64
2022-10-20T21:21:34.317Z,8.60
2022-10-20T21:24:57.877Z,8.51
2022-10-20T21:28:21.694Z,8.57
2022-10-20T21:31:43.386Z,8.59
2022-10-20T21:35:07.436Z,8.50
2022-10-20T21:38:33.479Z,8.47
2022-10-20T21:41:58.049Z,8.51
2022-10-20T21:45:19.538Z,8.51
2022-10-20T21:48:44.633Z,8.54
2022-10-20T21:52:06.176Z,8.54
2022-10-20T21:55:30.072Z,8.63
2022-10-20T21:58:52.740Z,8.50
2022-10-20T22:02:15.298Z,8.57
2022-10-20T22:05:36.793Z,8.61
2022-10-20T22:09:00.950Z,8.63
2022-10-20T22:12:22.568Z,8.65
2022-10-20T22:15:46.741Z,8.54
2022-10-20T22:19:13.981Z,8.57
2022-10-20T22:22:38.304Z,8.59
2022-10-20T22:26:03.071Z,8.49
2022-10-20T22:29:24.633Z,8.47
2022-10-20T22:32:46.140Z,8.54
2022-10-20T22:36:07.969Z,8.53
2022-10-20T22:39:29.483Z,8.59
2022-10-20T22:42:50.995Z,8.64
2022-10-20T22:46:12.586Z,8.57
2022-10-20T22:49:34.132Z,8.57
2022-10-20T22:52:55.636Z,8.53
2022-10-20T22:56:20.225Z,8.56
2022-10-20T22:59:41.771Z,8.47
2022-10-20T23:03:03.407Z,8.43
2022-10-20T23:06:27.962Z,8.33
2022-10-20T23:09:49.514Z,8.30
2022-10-20T23:13:10.999Z,8.28
2022-10-20T23:16:35.041Z,8.29
2022-10-20T23:19:56.532Z,8.17
2022-10-20T23:23:20.562Z,8.22
2022-10-20T23:26:42.652Z,8.16
2022-10-20T23:30:06.957Z,8.01
2022-10-20T23:33:28.439Z,8.07
2022-10-20T23:36:50.279Z,8.09
2022-10-20T23:40:12.261Z,8.07
2022-10-20T23:47:05.715Z,8.03
2022-10-20T23:50:29.337Z,8.01
2022-10-20T23:53:54.041Z,7.95
2022-10-20T23:57:15.589Z,7.93
